createdAt,value
2022-11-09T00:01:52.664Z,11.10
2022-11-09T00:04:26.731Z,12.55
2022-11-09T00:07:08.704Z,12.50
2022-11-09T00:09:49.773Z,11.52
2022-11-09T00:12:30.650Z,10.95
2022-11-09T00:15:12.400Z,11.80
2022-11-09T00:17:52.676Z,11.32
2022-11-09T00:20:45.929Z,10.10
2022-11-09T00:23:40.649Z,11.57
2022-11-09T00:26:28.650Z,11.77
2022-11-09T00:29:02.745Z,11.35
2022-11-09T00:31:49.645Z,12.15
2022-11-09T00:34:30.671Z,11.20
2022-11-09T00:37:17.706Z,10.90
2022-11-09T00:39:58.679Z,11.50
2022-11-09T00:42:52.650Z,11.45
2022-11-09T00:45:39.672Z,12.05
2022-11-09T00:48:14.821Z,10.93
2022-11-09T00:51:02.656Z,11.38
2022-11-09T00:53:37.732Z,11.95
2022-11-09T00:56:24.764Z,10.20
2022-11-09T00:59:07.660Z,11.35
2022-11-09T01:01:54.703Z,11.57
2022-11-09T01:04:36.652Z,12.15
2022-11-09T01:07:23.687Z,11.07
2022-11-09T01:09:57.738Z,10.50
2022-11-09T01:12:44.685Z,12.20
2022-11-09T01:15:18.747Z,11.48
2022-11-09T01:18:05.673Z,12.38
2022-11-09T01:20:40.108Z,10.70
2022-11-09T01:23:27.695Z,11.18
2022-11-09T01:26:09.773Z,10.68
2022-11-09T01:28:57.682Z,10.48
2022-11-09T01:31:31.731Z,10.55
2022-11-09T01:34:18.672Z,10.43
2022-11-09T01:36:52.728Z,11.23
2022-11-09T01:39:40.677Z,12.27
2022-11-09T01:42:21.668Z,10.73
2022-11-09T01:45:31.662Z,10.68
2022-11-09T01:48:14.602Z,11.20
2022-11-09T01:51:12.684Z,10.93
2022-11-09T01:53:49.623Z,11.95
2022-11-09T01:59:18.087Z,10.93
2022-11-09T02:02:06.685Z,10.15
2022-11-09T02:04:44.270Z,12.13
2022-11-09T02:07:31.659Z,11.68
2022-11-09T02:10:09.618Z,10.63
2022-11-09T02:12:57.674Z,11.32
2022-11-09T02:15:32.661Z,10.63
2022-11-09T02:18:20.683Z,10.65
2022-11-09T02:21:04.676Z,10.10
2022-11-09T02:23:45.758Z,10.75
2022-11-09T02:26:37.690Z,11.13
2022-11-09T02:29:20.730Z,9.90
2022-11-09T02:32:05.686Z,10.27
2022-11-09T02:34:46.661Z,10.43
2022-11-09T02:37:27.719Z,9.95
2022-11-09T02:40:03.529Z,11.27
2022-11-09T02:42:51.664Z,11.40
2022-11-09T02:45:25.647Z,11.35
2022-11-09T02:48:13.665Z,11.20
2022-11-09T02:50:47.628Z,10.55
2022-11-09T02:53:35.690Z,11.10
2022-11-09T02:56:09.722Z,11.13
2022-11-09T02:58:57.667Z,10.63
2022-11-09T03:01:31.754Z,10.32
2022-11-09T03:04:19.695Z,9.93
2022-11-09T03:06:59.704Z,10.85
2022-11-09T03:09:47.690Z,11.30
2022-11-09T03:12:30.888Z,11.30
2022-11-09T03:15:20.666Z,10.32
2022-11-09T03:17:54.667Z,12.15
2022-11-09T03:20:42.677Z,10.88
2022-11-09T03:23:16.811Z,11.05
2022-11-09T03:26:04.707Z,10.98
2022-11-09T03:28:38.678Z,11.27
2022-11-09T03:31:26.695Z,10.80
2022-11-09T03:34:14.673Z,11.15
2022-11-09T03:36:55.706Z,10.63
2022-11-09T03:39:42.685Z,11.48
2022-11-09T03:42:23.712Z,11.90
2022-11-09T03:45:11.693Z,11.20
2022-11-09T03:48:01.662Z,10.93
2022-11-09T03:50:42.703Z,12.20
2022-11-09T03:53:30.683Z,11.18
2022-11-09T03:56:04.657Z,11.10
2022-11-09T03:58:52.690Z,12.13
2022-11-09T04:01:26.673Z,11.90
2022-11-09T04:04:14.691Z,12.88
2022-11-09T04:06:54.747Z,12.98
2022-11-09T04:09:35.774Z,11.98
2022-11-09T04:12:15.698Z,11.55
2022-11-09T04:15:03.722Z,11.85
2022-11-09T04:17:37.671Z,12.23
2022-11-09T04:20:25.685Z,12.27
2022-11-09T04:23:07.701Z,10.88
2022-11-09T04:25:56.690Z,12.40
2022-11-09T04:28:30.713Z,12.10
2022-11-09T04:31:18.689Z,12.68
2022-11-09T04:33:52.694Z,13.18
2022-11-09T04:36:40.704Z,11.60
2022-11-09T04:39:14.698Z,11.95
2022-11-09T04:42:02.701Z,13.35
2022-11-09T04:44:36.677Z,13.07
2022-11-09T04:47:24.720Z,12.90
2022-11-09T04:50:04.707Z,14.20
2022-11-09T04:52:45.851Z,13.07
2022-11-09T04:55:26.716Z,14.38
2022-11-09T04:58:07.764Z,14.80
2022-11-09T05:00:47.708Z,15.13
2022-11-09T05:03:35.759Z,12.93
2022-11-09T05:06:34.789Z,14.00
2022-11-09T05:09:22.693Z,12.02
2022-11-09T05:11:56.763Z,14.45
2022-11-09T05:14:44.722Z,14.55
2022-11-09T05:17:18.819Z,14.40
2022-11-09T05:20:06.747Z,14.80
2022-11-09T05:23:05.717Z,15.02
2022-11-09T05:25:46.780Z,15.05
2022-11-09T05:28:26.725Z,13.77
2022-11-09T05:31:07.793Z,11.70
2022-11-09T05:33:48.698Z,13.40
2022-11-09T05:36:30.513Z,12.77
2022-11-09T05:39:10.691Z,15.73
2022-11-09T05:41:58.720Z,13.10
2022-11-09T05:44:32.658Z,14.77
2022-11-09T05:47:20.726Z,14.43
2022-11-09T05:49:54.646Z,12.00
2022-11-09T05:52:42.713Z,15.23
2022-11-09T05:55:16.668Z,14.32
2022-11-09T05:58:04.714Z,14.00
2022-11-09T06:00:39.050Z,13.75
2022-11-09T06:03:26.730Z,14.23
2022-11-09T06:06:09.243Z,15.50
2022-11-09T06:08:57.711Z,14.45
2022-11-09T06:11:31.644Z,14.18
2022-11-09T06:14:19.715Z,16.48
2022-11-09T06:16:53.685Z,15.88
2022-11-09T06:19:41.716Z,15.70
2022-11-09T06:22:15.729Z,16.05
2022-11-09T06:25:03.709Z,15.55
2022-11-09T06:27:44.715Z,17.10
2022-11-09T06:30:32.710Z,14.90
2022-11-09T06:33:06.812Z,16.00
2022-11-09T06:35:56.563Z,13.98
2022-11-09T06:38:30.847Z,14.90
2022-11-09T06:41:18.727Z,15.38
2022-11-09T06:43:58.698Z,13.10
2022-11-09T06:46:39.861Z,15.05
2022-11-09T06:49:19.701Z,14.13
2022-11-09T06:52:00.821Z,15.63
2022-11-09T06:54:47.715Z,17.00
2022-11-09T06:57:21.832Z,17.27
2022-11-09T07:00:09.711Z,13.35
2022-11-09T07:02:43.765Z,12.75
2022-11-09T07:05:31.729Z,14.95
2022-11-09T07:08:12.728Z,14.80
2022-11-09T07:10:59.725Z,16.02
2022-11-09T07:13:40.712Z,15.50
2022-11-09T07:16:28.707Z,16.55
2022-11-09T07:19:09.730Z,11.18
2022-11-09T07:21:56.717Z,15.73
2022-11-09T07:24:37.744Z,13.13
2022-11-09T07:27:31.709Z,11.40
2022-11-09T07:30:19.746Z,13.85
2022-11-09T07:33:08.694Z,13.38
2022-11-09T07:35:56.733Z,14.63
2022-11-09T07:38:37.723Z,16.25
2022-11-09T07:41:34.696Z,13.85
2022-11-09T07:44:24.777Z,13.48
2022-11-09T07:46:58.806Z,15.02
2022-11-09T07:49:46.752Z,13.10
2022-11-09T07:52:20.839Z,14.02
2022-11-09T07:55:07.747Z,14.00
2022-11-09T07:57:50.732Z,12.77
2022-11-09T08:00:39.735Z,13.18
2022-11-09T08:03:14.852Z,8.38
2022-11-09T08:06:04.752Z,9.45
2022-11-09T08:08:52.780Z,13.30
2022-11-09T08:11:26.872Z,13.77
2022-11-09T08:14:14.760Z,13.57
2022-11-09T08:16:54.744Z,12.98
2022-11-09T08:19:42.729Z,11.27
2022-11-09T08:22:16.707Z,14.32
2022-11-09T08:25:04.770Z,11.93
2022-11-09T08:27:40.307Z,10.60
2022-11-09T08:30:33.732Z,10.65
2022-11-09T08:33:13.724Z,10.10
2022-11-09T08:36:01.762Z,11.82
2022-11-09T08:38:56.754Z,12.23
2022-11-09T08:41:50.732Z,10.55
2022-11-09T08:44:37.754Z,12.50
2022-11-09T08:47:11.839Z,12.27
2022-11-09T08:49:58.737Z,12.27
2022-11-09T08:52:40.785Z,13.82
2022-11-09T08:55:20.765Z,11.45
2022-11-09T08:58:12.729Z,11.43
2022-11-09T09:00:53.715Z,11.88
2022-11-09T09:03:34.890Z,11.57
2022-11-09T09:06:15.732Z,12.40
2022-11-09T09:09:03.726Z,12.48
2022-11-09T09:11:43.746Z,12.82
2022-11-09T09:14:24.825Z,12.50
2022-11-09T09:17:04.733Z,11.60
2022-11-09T09:19:49.803Z,12.25
2022-11-09T09:22:29.781Z,12.18
2022-11-09T09:25:11.869Z,11.20
2022-11-09T09:27:52.738Z,13.00
2022-11-09T09:30:40.757Z,12.00
2022-11-09T09:33:21.750Z,11.73
2022-11-09T09:36:10.746Z,12.65
2022-11-09T09:38:44.770Z,10.80
2022-11-09T09:41:32.749Z,11.45
2022-11-09T09:44:17.729Z,11.98
2022-11-09T09:47:24.793Z,11.60
2022-11-09T09:50:28.824Z,12.68
2022-11-09T09:53:49.871Z,10.98
2022-11-09T09:56:40.757Z,10.35
2022-11-09T09:59:31.732Z,12.18
2022-11-09T10:02:35.756Z,12.07
2022-11-09T10:05:34.736Z,10.48
2022-11-09T10:08:40.741Z,10.85
2022-11-09T10:11:46.756Z,11.20
2022-11-09T10:14:36.765Z,11.48
2022-11-09T10:17:49.740Z,11.30
2022-11-09T10:20:52.694Z,11.90
2022-11-09T10:23:33.847Z,11.32
2022-11-09T10:26:28.755Z,12.73
2022-11-09T10:29:21.771Z,10.98
2022-11-09T10:32:01.374Z,11.07
2022-11-09T10:35:10.781Z,10.57
2022-11-09T10:37:46.860Z,10.90
2022-11-09T10:43:19.758Z,9.38
2022-11-09T10:46:18.767Z,11.55
2022-11-09T10:49:32.764Z,10.60
2022-11-09T10:55:29.742Z,10.85
2022-11-09T10:58:39.755Z,10.95
2022-11-09T11:01:31.815Z,9.60
2022-11-09T11:04:19.930Z,11.30
2022-11-09T11:07:21.555Z,10.55
2022-11-09T11:09:55.836Z,11.57
2022-11-09T11:12:42.778Z,10.10
2022-11-09T11:15:45.884Z,10.90
2022-11-09T11:18:33.791Z,10.38
2022-11-09T11:21:22.888Z,10.15
2022-11-09T11:24:15.757Z,11.23
2022-11-09T11:27:19.819Z,11.75
2022-11-09T11:30:34.754Z,11.90
2022-11-09T11:33:08.887Z,10.95
2022-11-09T11:36:02.813Z,11.00
2022-11-09T11:38:58.849Z,11.95
2022-11-09T11:41:54.794Z,12.00
2022-11-09T11:44:53.527Z,11.20
2022-11-09T11:48:04.780Z,11.93
2022-11-09T11:50:58.596Z,10.95
2022-11-09T11:56:26.336Z,10.00
2022-11-09T11:59:22.783Z,10.70
2022-11-09T12:02:28.822Z,9.75
2022-11-09T12:05:29.826Z,9.52
2022-11-09T12:08:24.777Z,9.57
2022-11-09T12:11:30.803Z,9.35
2022-11-09T12:14:24.774Z,9.32
2022-11-09T12:17:21.896Z,9.38
2022-11-09T12:20:29.813Z,10.50
2022-11-09T12:23:28.782Z,8.23
2022-11-09T12:26:24.154Z,11.73
2022-11-09T12:29:31.806Z,9.60
2022-11-09T12:32:25.111Z,10.35
2022-11-09T12:35:24.788Z,10.98
2022-11-09T12:38:04.865Z,10.25
2022-11-09T12:40:58.797Z,8.85
2022-11-09T12:43:32.876Z,8.55
2022-11-09T12:46:20.790Z,9.18
2022-11-09T12:49:02.967Z,8.48
2022-11-09T12:51:43.803Z,9.07
2022-11-09T12:54:24.842Z,8.13
2022-11-09T12:57:08.808Z,9.25
2022-11-09T12:59:54.121Z,8.30
2022-11-09T13:02:33.819Z,8.45
2022-11-09T13:05:40.784Z,9.00
2022-11-09T13:08:29.793Z,8.63
2022-11-09T13:11:31.807Z,8.63
2022-11-09T13:14:32.783Z,9.00
2022-11-09T13:17:38.826Z,8.50
2022-11-09T13:20:54.563Z,9.27
2022-11-09T13:24:01.212Z,8.40
2022-11-09T13:26:35.716Z,8.95
2022-11-09T13:29:23.803Z,8.82
2022-11-09T13:32:16.771Z,10.07
2022-11-09T13:34:59.911Z,8.80
2022-11-09T13:37:47.793Z,9.25
2022-11-09T13:40:37.932Z,8.80
2022-11-09T13:43:25.804Z,9.88
2022-11-09T13:46:01.941Z,9.32
2022-11-09T13:48:49.808Z,8.80
2022-11-09T13:51:33.793Z,10.27
2022-11-09T13:54:50.787Z,9.57
2022-11-09T13:57:38.782Z,9.07
2022-11-09T14:00:29.796Z,8.45
2022-11-09T14:03:32.822Z,10.43
2022-11-09T14:06:08.873Z,9.18
2022-11-09T14:08:56.800Z,8.32
2022-11-09T14:11:39.895Z,10.00
2022-11-09T14:14:26.813Z,9.68
2022-11-09T14:17:22.812Z,9.60
2022-11-09T14:20:51.839Z,8.27
2022-11-09T14:23:28.872Z,8.77
2022-11-09T14:26:27.794Z,8.57
2022-11-09T14:29:25.797Z,10.13
2022-11-09T14:32:31.786Z,10.73
2022-11-09T14:35:28.817Z,7.97
2022-11-09T14:38:04.880Z,11.18
2022-11-09T14:40:53.821Z,8.98
2022-11-09T14:43:32.918Z,10.40
2022-11-09T14:46:25.815Z,9.73
2022-11-09T14:49:09.881Z,9.32
2022-11-09T14:51:57.800Z,9.75
2022-11-09T14:54:33.894Z,9.23
2022-11-09T14:57:22.822Z,12.25
2022-11-09T14:59:57.792Z,12.27
2022-11-09T15:02:45.809Z,11.20
2022-11-09T15:05:45.845Z,8.00
2022-11-09T15:08:33.816Z,8.65
2022-11-09T15:11:14.813Z,8.43
2022-11-09T15:14:02.815Z,10.73
2022-11-09T15:16:44.813Z,10.02
2022-11-09T15:19:39.854Z,9.57
2022-11-09T15:22:40.808Z,9.07
2022-11-09T15:25:30.829Z,10.85
2022-11-09T15:31:11.812Z,13.10
2022-11-09T15:33:59.817Z,13.57
2022-11-09T15:36:46.820Z,14.15
2022-11-09T15:39:20.905Z,18.58
2022-11-09T15:42:07.831Z,15.18
2022-11-09T15:44:42.003Z,14.00
2022-11-09T15:47:30.819Z,15.70
2022-11-09T15:50:23.882Z,18.48
2022-11-09T15:53:03.822Z,46.42
2022-11-09T15:55:44.971Z,39.00
2022-11-09T15:58:25.823Z,18.70
2022-11-09T16:01:13.837Z,15.60
2022-11-09T16:03:47.840Z,21.90
2022-11-09T16:06:36.901Z,24.70
2022-11-09T16:09:10.784Z,26.02
2022-11-09T16:11:58.818Z,15.40
2022-11-09T16:14:33.246Z,20.33
2022-11-09T16:17:13.815Z,28.05
2022-11-09T16:19:54.834Z,21.67
2022-11-09T16:22:35.967Z,15.82
2022-11-09T16:25:23.862Z,12.05
2022-11-09T16:28:05.795Z,13.43
2022-11-09T16:30:47.291Z,19.15
2022-11-09T16:33:27.838Z,15.85
2022-11-09T16:36:16.821Z,15.05
2022-11-09T16:38:59.850Z,15.52
2022-11-09T16:41:40.919Z,14.10
2022-11-09T16:44:30.864Z,13.52
2022-11-09T16:47:11.853Z,13.82
2022-11-09T16:50:05.807Z,13.18
2022-11-09T16:52:52.844Z,12.13
2022-11-09T16:55:33.817Z,12.07
2022-11-09T16:58:21.082Z,12.90
2022-11-09T17:01:12.159Z,11.65
2022-11-09T17:04:00.876Z,13.35
2022-11-09T17:06:41.886Z,12.75
2022-11-09T17:09:35.823Z,11.52
2022-11-09T17:12:22.841Z,12.50
2022-11-09T17:15:03.825Z,11.60
2022-11-09T17:17:57.822Z,12.27
2022-11-09T17:20:38.823Z,12.27
2022-11-09T17:23:26.846Z,13.13
2022-11-09T17:26:14.823Z,12.45
2022-11-09T17:28:55.854Z,13.52
2022-11-09T17:31:49.875Z,12.02
2022-11-09T17:34:36.834Z,12.00
2022-11-09T17:37:10.916Z,13.02
2022-11-09T17:39:58.840Z,12.02
2022-11-09T17:42:32.930Z,12.23
2022-11-09T17:45:19.837Z,11.25
2022-11-09T17:47:53.915Z,11.95
2022-11-09T17:50:40.836Z,15.55
2022-11-09T17:53:28.823Z,12.82
2022-11-09T17:56:02.948Z,12.80
2022-11-09T17:58:54.843Z,12.13
2022-11-09T18:01:41.233Z,16.10
2022-11-09T18:04:22.896Z,20.90
2022-11-09T18:07:02.863Z,16.00
2022-11-09T18:09:43.921Z,14.07
2022-11-09T18:12:25.853Z,9.68
2022-11-09T18:15:06.981Z,15.13
2022-11-09T18:17:47.849Z,12.02
2022-11-09T18:20:35.848Z,11.60
2022-11-09T18:23:15.852Z,9.35
2022-11-09T18:26:09.839Z,12.13
2022-11-09T18:28:43.848Z,13.00
2022-11-09T18:31:31.838Z,13.65
2022-11-09T18:34:25.861Z,11.20
2022-11-09T18:37:12.845Z,12.05
2022-11-09T18:39:46.923Z,10.45
2022-11-09T18:42:34.900Z,10.82
2022-11-09T18:45:08.947Z,11.38
2022-11-09T18:47:56.850Z,11.70
2022-11-09T18:50:30.921Z,11.00
2022-11-09T18:53:18.142Z,18.67
2022-11-09T18:55:52.952Z,28.38
2022-11-09T18:58:40.845Z,13.65
2022-11-09T19:01:15.247Z,12.48
2022-11-09T19:04:02.858Z,22.75
2022-11-09T19:06:50.933Z,21.02
2022-11-09T19:09:44.858Z,26.17
2022-11-09T19:12:26.403Z,13.77
2022-11-09T19:15:06.862Z,12.10
2022-11-09T19:17:47.943Z,11.95
2022-11-09T19:20:27.844Z,13.35
2022-11-09T19:23:15.841Z,13.55
2022-11-09T19:25:56.845Z,10.85
2022-11-09T19:28:37.971Z,7.60
2022-11-09T19:31:22.858Z,12.23
2022-11-09T19:34:03.912Z,14.40
2022-11-09T19:36:44.836Z,17.35
2022-11-09T19:39:35.303Z,13.07
2022-11-09T19:42:16.871Z,13.73
2022-11-09T19:44:57.951Z,11.98
2022-11-09T19:47:37.840Z,13.60
2022-11-09T19:50:18.937Z,10.40
2022-11-09T19:52:58.850Z,11.52
2022-11-09T19:55:39.902Z,12.25
2022-11-09T19:58:20.096Z,15.93
2022-11-09T20:01:07.959Z,14.07
2022-11-09T20:03:47.844Z,16.05
2022-11-09T20:06:36.907Z,17.75
2022-11-09T20:09:16.850Z,12.20
2022-11-09T20:12:22.850Z,13.98
2022-11-09T20:14:57.047Z,15.18
2022-11-09T20:17:44.854Z,12.90
2022-11-09T20:20:18.884Z,11.55
2022-11-09T20:23:06.850Z,14.63
2022-11-09T20:25:46.865Z,16.20
2022-11-09T20:28:27.938Z,12.60
2022-11-09T20:31:08.874Z,15.00
2022-11-09T20:33:56.853Z,14.60
2022-11-09T20:36:36.857Z,13.73
2022-11-09T20:39:24.854Z,15.60
2022-11-09T20:41:58.843Z,16.45
2022-11-09T20:44:46.870Z,20.83
2022-11-09T20:48:07.192Z,19.88
2022-11-09T20:50:49.880Z,17.95
2022-11-09T20:53:30.861Z,15.50
2022-11-09T20:56:18.871Z,17.77
2022-11-09T20:58:52.944Z,22.98
2022-11-09T21:01:39.926Z,16.02
2022-11-09T21:04:13.978Z,30.92
2022-11-09T21:07:01.022Z,26.70
2022-11-09T21:09:35.030Z,24.95
2022-11-09T21:12:27.953Z,16.30
2022-11-09T21:15:01.959Z,18.27
2022-11-09T21:17:48.926Z,16.05
2022-11-09T21:20:22.938Z,14.60
2022-11-09T21:23:19.927Z,15.23
2022-11-09T21:26:19.819Z,16.98
2022-11-09T21:29:32.868Z,18.52
2022-11-09T21:32:13.953Z,22.52
2022-11-09T21:34:54.865Z,18.17
2022-11-09T21:37:36.000Z,17.73
2022-11-09T21:40:16.856Z,19.08
2022-11-09T21:42:57.954Z,16.08
2022-11-09T21:45:37.882Z,11.23
2022-11-09T21:48:25.838Z,18.83
2022-11-09T21:51:05.868Z,17.45
2022-11-09T21:53:53.866Z,17.20
2022-11-09T21:56:34.860Z,16.52
2022-11-09T21:59:22.858Z,17.08
2022-11-09T22:02:04.851Z,17.52
2022-11-09T22:04:58.854Z,13.60
2022-11-09T22:07:45.864Z,18.05
2022-11-09T22:10:27.009Z,16.65
2022-11-09T22:13:25.861Z,16.52
2022-11-09T22:16:06.965Z,17.27
2022-11-09T22:19:05.860Z,12.70
2022-11-09T22:21:46.933Z,16.95
2022-11-09T22:24:27.884Z,17.25
2022-11-09T22:27:08.933Z,14.20
2022-11-09T22:29:49.922Z,17.38
2022-11-09T22:32:30.987Z,12.70
2022-11-09T22:35:11.886Z,13.45
2022-11-09T22:37:52.935Z,15.77
2022-11-09T22:40:32.878Z,13.68
2022-11-09T22:43:13.954Z,13.77
2022-11-09T22:45:54.879Z,12.93
2022-11-09T22:48:43.876Z,14.98
2022-11-09T22:51:19.568Z,14.15
2022-11-09T22:54:06.857Z,13.02
2022-11-09T22:56:40.884Z,16.98
2022-11-09T22:59:28.868Z,12.68
2022-11-09T23:02:09.879Z,12.15
2022-11-09T23:04:50.957Z,12.63
2022-11-09T23:07:30.891Z,10.88
2022-11-09T23:10:11.994Z,12.95
2022-11-09T23:12:51.867Z,8.65
2022-11-09T23:15:32.991Z,11.70
2022-11-09T23:18:31.891Z,9.48
2022-11-09T23:21:19.877Z,15.07
2022-11-09T23:23:54.551Z,12.20
2022-11-09T23:26:41.866Z,12.98
2022-11-09T23:29:15.888Z,13.65
2022-11-09T23:32:03.863Z,11.07
2022-11-09T23:34:37.841Z,14.32
2022-11-09T23:37:25.878Z,11.63
2022-11-09T23:40:00.859Z,16.23
2022-11-09T23:42:48.904Z,15.88
2022-11-09T23:45:22.847Z,16.05
2022-11-09T23:48:10.884Z,17.65
2022-11-09T23:50:54.875Z,11.68
2022-11-09T23:53:42.890Z,15.35
2022-11-09T23:56:16.828Z,20.38
2022-11-09T23:59:04.862Z,16.20
